Time;durP1;ratioP1;P1;durP2;ratioP2;P2;SDS_P1;SDS_P2;PMS_P1;PMS_P2;Temp;Humidity;BMP_temperature;BMP_pressure;BME280_temperature;BME280_humidity;BME280_pressure;Samples;Min_cycle;Max_cycle;Signal;HPM_P1;HPM_P2
2023/12/15 00:02:01;;;;;;;18.90;10.65;;;9.60;99.90;;;;;;4953331;28;20062;-79
2023/12/15 00:04:29;;;;;;;16.73;9.88;;;9.50;1.00;;;;;;4952073;29;20037;-81
2023/12/15 00:06:56;;;;;;;15.82;10.70;;;9.60;99.90;;;;;;4951759;28;20075;-78
2023/12/15 00:09:25;;;;;;;15.70;10.32;;;9.60;99.90;;;;;;4951030;29;20499;-80
2023/12/15 00:11:53;;;;;;;14.93;10.48;;;9.60;1.00;;;;;;4952245;29;20063;-79
2023/12/15 00:14:20;;;;;;;18.25;10.38;;;9.60;1.00;;;;;;4951669;28;20500;-79
2023/12/15 00:16:48;;;;;;;13.40;9.80;;;9.60;1.00;;;;;;4951697;28;20051;-79
2023/12/15 00:19:16;;;;;;;13.93;10.20;;;9.60;1.00;;;;;;4951470;29;20050;-81
2023/12/15 00:21:43;;;;;;;12.27;9.43;;;9.60;1.00;;;;;;4952992;28;20039;-81
2023/12/15 00:24:11;;;;;;;14.82;9.73;;;9.60;99.90;;;;;;4951691;28;20086;-80
2023/12/15 00:26:40;;;;;;;15.65;9.85;;;9.70;99.90;;;;;;4950841;29;20098;-79
2023/12/15 00:29:07;;;;;;;15.55;9.90;;;9.50;99.90;;;;;;4952162;29;20444;-80
2023/12/15 00:31:35;;;;;;;17.65;10.82;;;9.60;19.40;;;;;;4952635;29;20043;-79
2023/12/15 00:34:02;;;;;;;14.77;9.98;;;9.50;1.00;;;;;;4952424;29;20117;-80
2023/12/15 00:36:30;;;;;;;13.05;9.75;;;9.50;1.00;;;;;;4964879;28;20055;-79
2023/12/15 00:38:59;;;;;;;14.18;9.55;;;9.50;1.00;;;;;;4951451;29;20102;-80
2023/12/15 00:41:26;;;;;;;13.88;10.35;;;9.50;1.00;;;;;;4951431;29;20067;-79
2023/12/15 00:43:55;;;;;;;15.27;9.98;;;9.40;1.00;;;;;;4952941;28;20047;-80
2023/12/15 00:46:23;;;;;;;14.55;10.20;;;9.40;1.00;;;;;;4955174;29;20630;-80
2023/12/15 00:48:51;;;;;;;14.65;10.82;;;9.40;99.90;;;;;;4955169;28;20045;-80
2023/12/15 00:51:18;;;;;;;15.48;10.65;;;9.40;99.90;;;;;;4954985;29;20508;-79
2023/12/15 00:53:46;;;;;;;16.13;10.70;;;9.40;99.90;;;;;;4954578;29;20047;-80
2023/12/15 00:56:13;;;;;;;15.63;10.32;;;9.40;47.60;;;;;;4955913;28;20039;-79
2023/12/15 00:58:41;;;;;;;15.73;11.45;;;9.40;99.90;;;;;;4955150;29;20043;-80
2023/12/15 01:01:10;;;;;;;13.85;10.77;;;9.40;99.90;;;;;;4956024;28;20051;-80
2023/12/15 01:03:39;;;;;;;16.38;11.88;;;9.40;75.90;;;;;;4954349;29;20519;-80
2023/12/15 01:06:07;;;;;;;17.20;10.23;;;9.40;99.90;;;;;;4955803;28;20050;-80
2023/12/15 01:08:34;;;;;;;14.50;10.40;;;9.40;13.50;;;;;;4956189;29;20055;-80
2023/12/15 01:11:02;;;;;;;14.95;10.23;;;9.40;1.00;;;;;;4956472;29;20506;-79
2023/12/15 01:13:30;;;;;;;14.88;10.80;;;9.40;1.00;;;;;;4963957;29;20103;-78
2023/12/15 01:15:57;;;;;;;15.55;10.88;;;9.40;1.00;;;;;;4963029;28;20047;-79
2023/12/15 01:18:28;;;;;;;14.45;9.95;;;9.40;99.90;;;;;;4960358;29;20043;-81
2023/12/15 01:20:56;;;;;;;12.50;9.40;;;9.40;99.90;;;;;;4960764;29;20051;-80
2023/12/15 01:23:23;;;;;;;15.18;10.27;;;9.30;99.90;;;;;;4962087;29;20046;-79
2023/12/15 01:25:50;;;;;;;14.90;10.52;;;9.30;1.00;;;;;;4961222;29;20039;-78
2023/12/15 01:28:18;;;;;;;16.17;10.75;;;9.30;1.00;;;;;;4957346;29;20051;-79
2023/12/15 01:30:46;;;;;;;16.58;11.00;;;9.30;1.00;;;;;;4971953;28;20055;-79
2023/12/15 01:33:13;;;;;;;25.42;15.15;;;9.30;1.00;;;;;;4978125;28;20031;-78
2023/12/15 01:35:42;;;;;;;23.60;14.40;;;9.20;99.90;;;;;;4977761;28;20053;-80
2023/12/15 01:38:10;;;;;;;17.48;12.23;;;9.10;99.90;;;;;;4972870;29;20106;-78
2023/12/15 01:40:37;;;;;;;19.13;12.80;;;9.10;1.00;;;;;;4974657;29;20054;-78
2023/12/15 01:43:05;;;;;;;18.45;12.00;;;9.10;99.90;;;;;;4974307;29;20083;-79
2023/12/15 01:45:32;;;;;;;18.67;11.57;;;9.20;99.90;;;;;;4971378;28;20086;-78
2023/12/15 01:48:02;;;;;;;15.23;10.27;;;9.20;1.00;;;;;;4958935;28;20066;-79
2023/12/15 01:50:30;;;;;;;18.00;11.57;;;9.30;1.00;;;;;;4958056;29;20166;-80
2023/12/15 01:52:59;;;;;;;15.95;11.75;;;9.30;99.90;;;;;;4959035;28;20043;-81
2023/12/15 01:55:26;;;;;;;19.33;12.25;;;9.30;99.90;;;;;;4956509;28;20039;-80
2023/12/15 01:57:55;;;;;;;19.95;13.02;;;9.30;99.90;;;;;;4958131;28;20046;-79
2023/12/15 02:00:28;;;;;;;21.95;13.50;;;9.30;99.90;;;;;;4956936;28;20090;-79
2023/12/15 02:02:56;;;;;;;17.08;12.48;;;9.40;99.90;;;;;;4953360;29;20440;-79
2023/12/15 02:05:31;;;;;;;17.08;12.60;;;9.40;1.00;;;;;;4955006;28;20085;-80
2023/12/15 02:08:00;;;;;;;17.25;12.82;;;9.40;99.90;;;;;;4954792;28;20078;-80
2023/12/15 02:10:28;;;;;;;18.40;12.18;;;9.30;99.90;;;;;;4955052;29;20050;-79
2023/12/15 02:12:57;;;;;;;19.08;12.38;;;9.40;99.90;;;;;;4955891;29;20123;-80
2023/12/15 02:15:25;;;;;;;17.33;12.93;;;9.40;1.00;;;;;;4955525;29;20067;-80
2023/12/15 02:17:53;;;;;;;21.95;14.32;;;9.40;1.00;;;;;;4954951;28;20032;-80
2023/12/15 02:20:20;;;;;;;21.75;13.90;;;9.30;99.90;;;;;;4955289;28;20063;-79
2023/12/15 02:22:49;;;;;;;19.45;13.38;;;9.20;1.00;;;;;;4954959;28;20174;-79
2023/12/15 02:25:18;;;;;;;23.45;14.50;;;9.20;1.00;;;;;;4953827;29;20074;-79
2023/12/15 02:27:45;;;;;;;22.33;14.10;;;9.10;99.90;;;;;;4954328;28;20035;-79
2023/12/15 02:30:14;;;;;;;21.13;14.82;;;9.10;1.00;;;;;;4953938;28;20052;-79
2023/12/15 02:32:41;;;;;;;21.10;15.27;;;9.20;1.00;;;;;;4953783;29;20530;-81
2023/12/15 02:35:11;;;;;;;25.52;16.55;;;9.20;1.00;;;;;;4953439;29;20053;-79
2023/12/15 02:37:39;;;;;;;24.40;17.05;;;9.20;1.00;;;;;;4954000;28;20392;-79
2023/12/15 02:40:09;;;;;;;19.58;15.48;;;9.10;1.00;;;;;;4954264;29;20039;-80
2023/12/15 02:42:36;;;;;;;21.90;16.70;;;9.10;1.00;;;;;;4952067;29;20037;-79
2023/12/15 02:45:04;;;;;;;18.05;14.95;;;9.10;1.00;;;;;;4951680;29;20323;-78
2023/12/15 02:47:32;;;;;;;24.13;17.33;;;9.10;1.00;;;;;;4953035;28;20055;-80
2023/12/15 02:49:59;;;;;;;21.25;16.95;;;9.10;36.30;;;;;;4952597;28;20070;-78
2023/12/15 02:52:27;;;;;;;24.73;16.77;;;9.10;99.90;;;;;;4951286;29;20035;-78
2023/12/15 02:54:55;;;;;;;21.27;16.10;;;9.10;99.90;;;;;;4951305;29;20122;-78
2023/12/15 02:57:24;;;;;;;18.45;14.25;;;9.10;99.90;;;;;;4952456;29;20050;-81
2023/12/15 02:59:51;;;;;;;22.70;14.20;;;9.20;99.90;;;;;;4951764;29;20071;-79
2023/12/15 03:02:19;;;;;;;18.33;13.82;;;9.10;54.80;;;;;;4952654;29;20110;-80
2023/12/15 03:04:46;;;;;;;22.23;15.05;;;9.10;97.90;;;;;;4967514;28;20039;-80
2023/12/15 03:07:14;;;;;;;20.83;14.35;;;9.20;4.40;;;;;;4968096;28;20047;-79
2023/12/15 03:09:42;;;;;;;19.50;14.13;;;9.10;1.00;;;;;;4969191;29;20067;-79
2023/12/15 03:12:09;;;;;;;20.67;13.60;;;9.10;99.90;;;;;;4984957;28;20051;-78
2023/12/15 03:14:38;;;;;;;19.30;13.98;;;9.10;99.90;;;;;;4969751;28;20358;-78
2023/12/15 03:17:07;;;;;;;18.98;13.40;;;9.00;42.80;;;;;;4961601;29;20047;-79
2023/12/15 03:19:35;;;;;;;20.02;13.35;;;9.10;1.00;;;;;;4952010;29;20491;-79
2023/12/15 03:22:02;;;;;;;19.40;14.30;;;9.10;1.00;;;;;;4950163;29;20057;-79
2023/12/15 03:24:30;;;;;;;21.08;15.05;;;9.10;1.00;;;;;;4951087;29;20443;-79
2023/12/15 03:26:57;;;;;;;26.42;15.02;;;9.20;1.00;;;;;;4952408;28;20055;-78
2023/12/15 03:29:25;;;;;;;25.50;15.43;;;9.20;1.00;;;;;;4952108;29;20058;-78
2023/12/15 03:31:54;;;;;;;28.30;16.77;;;9.20;99.90;;;;;;4951355;29;20044;-77
2023/12/15 03:34:21;;;;;;;18.58;13.50;;;9.30;99.90;;;;;;4951594;29;20049;-79
2023/12/15 03:36:49;;;;;;;21.13;15.15;;;9.20;1.00;;;;;;4951999;28;20082;-80
2023/12/15 03:39:17;;;;;;;20.85;13.35;;;9.20;1.00;;;;;;4951808;28;20106;-78
2023/12/15 03:41:44;;;;;;;18.60;13.07;;;9.20;1.00;;;;;;4951331;28;20488;-82
2023/12/15 03:44:12;;;;;;;18.77;13.05;;;9.20;1.00;;;;;;4950735;29;20090;-80
2023/12/15 03:46:39;;;;;;;19.70;13.50;;;9.30;1.00;;;;;;4951569;28;20679;-79
2023/12/15 03:49:08;;;;;;;17.13;12.38;;;9.30;1.00;;;;;;4951741;28;20121;-78
2023/12/15 03:51:36;;;;;;;17.92;13.02;;;9.30;1.00;;;;;;4965121;28;20062;-81
2023/12/15 03:54:04;;;;;;;19.55;14.40;;;9.30;99.90;;;;;;4951354;29;20066;-80
2023/12/15 03:56:31;;;;;;;18.58;14.05;;;9.30;99.90;;;;;;4951415;28;20046;-80
2023/12/15 03:59:01;;;;;;;18.58;13.38;;;9.40;99.90;;;;;;4952103;28;20059;-78
2023/12/15 04:01:29;;;;;;;19.63;13.68;;;9.40;1.00;;;;;;4952794;28;20061;-80
2023/12/15 04:03:58;;;;;;;18.15;12.75;;;9.30;99.90;;;;;;4958741;29;20043;-81
2023/12/15 04:06:27;;;;;;;18.75;13.60;;;9.30;1.00;;;;;;4953417;29;20039;-81
2023/12/15 04:08:55;;;;;;;21.00;14.02;;;9.30;1.00;;;;;;4953498;29;20047;-79
2023/12/15 04:11:23;;;;;;;20.38;14.15;;;9.30;99.90;;;;;;4957001;28;20048;-80
2023/12/15 04:13:50;;;;;;;20.08;13.77;;;9.30;99.90;;;;;;4954696;28;20500;-78
2023/12/15 04:16:18;;;;;;;20.52;14.15;;;9.30;1.00;;;;;;4955124;28;20085;-79
2023/12/15 04:18:45;;;;;;;18.20;14.40;;;9.20;1.00;;;;;;4949302;29;20047;-81
2023/12/15 04:21:13;;;;;;;22.80;14.57;;;9.30;99.90;;;;;;4949188;29;20086;-79
2023/12/15 04:23:42;;;;;;;20.50;13.63;;;9.30;99.90;;;;;;4950704;28;20110;-80
2023/12/15 04:26:10;;;;;;;18.17;13.07;;;9.20;1.00;;;;;;4949710;28;20054;-78
2023/12/15 04:29:13;;;;;;;16.98;12.93;;;9.10;1.00;;;;;;4950941;29;20496;-78
2023/12/15 04:31:41;;;;;;;15.88;12.30;;;9.10;1.00;;;;;;4947047;29;20141;-77
2023/12/15 04:34:08;;;;;;;15.20;11.98;;;9.00;99.90;;;;;;4949508;29;20496;-79
2023/12/15 04:36:36;;;;;;;15.07;11.85;;;8.90;99.90;;;;;;4950490;29;20519;-78
2023/12/15 04:39:04;;;;;;;15.70;12.48;;;8.90;99.90;;;;;;4950819;29;20069;-80
2023/12/15 04:41:32;;;;;;;16.85;12.95;;;8.90;99.90;;;;;;4950238;28;20137;-79
2023/12/15 04:43:59;;;;;;;18.90;12.10;;;8.90;1.00;;;;;;4949248;29;20042;-79
2023/12/15 04:46:28;;;;;;;17.77;12.70;;;9.00;1.00;;;;;;4950426;29;20035;-81
2023/12/15 04:48:57;;;;;;;17.42;12.85;;;9.10;1.00;;;;;;4951261;29;20055;-80
2023/12/15 04:51:25;;;;;;;18.92;12.93;;;9.10;1.00;;;;;;4950673;29;20082;-80
2023/12/15 04:53:52;;;;;;;20.17;13.23;;;9.20;99.90;;;;;;4950974;29;20051;-79
2023/12/15 04:56:21;;;;;;;20.55;14.93;;;9.20;1.00;;;;;;4951005;28;20495;-78
2023/12/15 04:58:49;;;;;;;16.35;12.60;;;9.10;99.90;;;;;;4950893;29;20050;-78
2023/12/15 05:01:17;;;;;;;19.75;13.80;;;9.10;1.00;;;;;;4951463;28;20094;-79
2023/12/15 05:03:45;;;;;;;18.17;12.98;;;9.20;1.00;;;;;;4950926;28;20134;-79
2023/12/15 05:06:18;;;;;;;19.17;13.02;;;9.20;99.90;;;;;;4950548;28;20503;-80
2023/12/15 05:08:46;;;;;;;17.70;12.90;;;9.20;99.90;;;;;;4951063;29;20545;-78
2023/12/15 05:11:14;;;;;;;18.55;13.30;;;9.30;99.90;;;;;;4950821;28;20042;-79
2023/12/15 05:13:43;;;;;;;22.23;13.95;;;9.30;1.00;;;;;;4950234;29;20043;-80
2023/12/15 05:16:10;;;;;;;21.02;14.32;;;9.30;1.00;;;;;;4950263;28;20640;-78
2023/12/15 05:18:38;;;;;;;24.23;15.32;;;9.30;99.90;;;;;;4950695;29;20039;-80
2023/12/15 05:21:06;;;;;;;26.83;18.70;;;9.30;99.90;;;;;;4951419;29;20114;-80
2023/12/15 05:23:33;;;;;;;24.30;17.45;;;9.40;1.00;;;;;;4964852;28;20055;-78
2023/12/15 05:26:01;;;;;;;20.02;13.38;;;9.30;99.90;;;;;;4950331;29;20043;-79
2023/12/15 05:28:28;;;;;;;27.38;19.08;;;9.10;99.90;;;;;;4954573;29;20036;-79
2023/12/15 05:30:57;;;;;;;21.48;15.27;;;9.20;99.90;;;;;;4962687;28;20040;-79
2023/12/15 05:33:25;;;;;;;22.13;16.52;;;9.10;1.00;;;;;;4959736;29;20043;-78
2023/12/15 05:35:52;;;;;;;25.65;16.40;;;9.10;99.90;;;;;;4954928;28;20043;-79
2023/12/15 05:38:20;;;;;;;24.58;14.60;;;9.10;1.00;;;;;;4956187;29;20047;-80
2023/12/15 05:40:47;;;;;;;31.10;20.83;;;9.00;39.60;;;;;;4957883;28;20071;-79
2023/12/15 05:43:15;;;;;;;35.05;23.35;;;9.10;1.00;;;;;;4956205;29;20039;-80
2023/12/15 05:45:43;;;;;;;33.30;21.30;;;9.10;99.90;;;;;;4963720;28;20047;-77
2023/12/15 05:48:12;;;;;;;27.80;19.58;;;9.20;99.90;;;;;;4974205;29;20050;-79
2023/12/15 05:50:39;;;;;;;18.17;11.52;;;9.10;99.90;;;;;;4962829;29;20051;-79
2023/12/15 05:53:07;;;;;;;23.20;16.70;;;9.10;1.00;;;;;;4970285;28;20035;-80
2023/12/15 05:55:34;;;;;;;21.02;15.50;;;9.10;99.90;;;;;;4969719;28;20103;-78
2023/12/15 05:58:01;;;;;;;21.35;15.43;;;9.10;1.00;;;;;;4962142;29;20055;-81
2023/12/15 06:00:28;;;;;;;24.23;16.70;;;9.10;1.00;;;;;;4953512;28;20043;-80
2023/12/15 06:02:55;;;;;;;20.60;15.40;;;9.20;99.90;;;;;;4954026;29;20047;-80
2023/12/15 06:05:25;;;;;;;20.20;15.90;;;9.20;99.90;;;;;;4956955;28;20047;-79
2023/12/15 06:07:52;;;;;;;25.08;17.02;;;9.20;99.90;;;;;;4954839;29;20039;-79
2023/12/15 06:10:20;;;;;;;28.65;21.13;;;9.10;1.00;;;;;;4955024;29;20050;-81
2023/12/15 06:12:47;;;;;;;46.42;27.90;;;9.20;7.90;;;;;;4968854;28;20047;-79
2023/12/15 06:15:15;;;;;;;51.58;30.35;;;9.20;1.00;;;;;;4953624;29;20139;-80
2023/12/15 06:17:42;;;;;;;40.33;27.38;;;9.20;1.00;;;;;;4953800;29;20046;-80
2023/12/15 06:20:11;;;;;;;38.95;26.27;;;9.20;1.00;;;;;;4953815;29;20047;-79
2023/12/15 06:22:40;;;;;;;53.45;33.20;;;9.20;1.00;;;;;;4953944;28;20043;-80
2023/12/15 06:25:08;;;;;;;60.03;36.67;;;9.20;99.90;;;;;;4952536;29;20048;-80
2023/12/15 06:27:36;;;;;;;61.85;39.53;;;9.20;99.90;;;;;;4952946;28;20488;-79
2023/12/15 06:30:04;;;;;;;60.40;38.72;;;9.30;99.90;;;;;;4953265;29;20484;-78
2023/12/15 06:32:32;;;;;;;43.85;27.60;;;9.30;99.90;;;;;;4953315;28;20114;-78
2023/12/15 06:34:59;;;;;;;39.90;26.92;;;9.30;99.90;;;;;;4952969;28;20062;-78
2023/12/15 06:37:26;;;;;;;28.65;20.00;;;9.30;75.80;;;;;;4952369;28;20043;-79
2023/12/15 06:39:55;;;;;;;37.00;24.35;;;9.30;99.90;;;;;;4953467;29;20040;-78
2023/12/15 06:42:23;;;;;;;39.20;24.83;;;9.10;67.30;;;;;;4952203;28;20518;-79
2023/12/15 06:44:50;;;;;;;40.75;27.08;;;9.10;1.00;;;;;;4952531;28;20110;-79
2023/12/15 06:47:18;;;;;;;34.17;22.98;;;9.00;1.00;;;;;;4951981;29;20035;-79
2023/12/15 06:49:45;;;;;;;34.50;22.98;;;9.00;37.00;;;;;;4953503;29;20399;-78
2023/12/15 06:52:12;;;;;;;33.67;22.30;;;9.10;99.90;;;;;;4952876;29;20055;-78
2023/12/15 06:54:40;;;;;;;34.05;23.05;;;9.10;20.20;;;;;;4952266;29;20069;-79
2023/12/15 06:57:09;;;;;;;32.17;22.15;;;9.10;1.00;;;;;;4953630;29;20043;-79
2023/12/15 06:59:37;;;;;;;34.95;21.88;;;9.10;99.90;;;;;;4953604;29;20054;-80
2023/12/15 07:02:05;;;;;;;37.17;25.13;;;9.10;1.00;;;;;;4954088;29;20098;-78
2023/12/15 07:04:32;;;;;;;33.15;22.85;;;9.20;99.90;;;;;;4952429;28;20249;-80
2023/12/15 07:06:59;;;;;;;42.05;28.13;;;9.20;1.00;;;;;;4957812;28;20095;-77
2023/12/15 07:09:27;;;;;;;34.78;23.27;;;9.30;1.00;;;;;;4953129;29;20090;-79
2023/12/15 07:11:57;;;;;;;35.25;23.02;;;9.30;1.00;;;;;;4953794;28;20054;-78
2023/12/15 07:14:26;;;;;;;32.92;21.58;;;9.30;1.00;;;;;;4952114;28;20042;-80
2023/12/15 07:16:53;;;;;;;33.13;23.08;;;9.40;99.90;;;;;;4952290;29;20043;-80
2023/12/15 07:19:20;;;;;;;40.58;29.23;;;9.40;99.90;;;;;;4952241;29;20040;-80
2023/12/15 07:21:48;;;;;;;32.80;22.58;;;9.40;99.90;;;;;;4973058;29;20118;-80
2023/12/15 07:24:15;;;;;;;36.90;23.83;;;9.40;1.00;;;;;;4973456;29;20050;-79
2023/12/15 07:26:43;;;;;;;35.83;23.35;;;9.50;99.90;;;;;;4969136;28;20103;-79
2023/12/15 07:29:10;;;;;;;37.50;24.95;;;9.50;99.90;;;;;;4973318;29;20031;-79
2023/12/15 07:31:40;;;;;;;37.78;22.00;;;9.50;81.90;;;;;;4973932;29;20042;-80
2023/12/15 07:34:08;;;;;;;34.92;22.50;;;9.40;1.00;;;;;;4972588;29;20063;-82
2023/12/15 07:36:35;;;;;;;36.45;24.65;;;9.50;99.90;;;;;;4971038;29;20044;-80
2023/12/15 07:39:03;;;;;;;42.67;29.38;;;9.50;4.90;;;;;;4969156;29;20130;-77
2023/12/15 07:41:30;;;;;;;53.70;34.05;;;9.50;71.00;;;;;;4967318;29;20100;-79
2023/12/15 07:43:58;;;;;;;48.80;31.50;;;9.50;1.00;;;;;;4967338;29;20111;-78
2023/12/15 07:46:25;;;;;;;78.13;43.28;;;9.60;1.00;;;;;;4966440;28;20043;-80
2023/12/15 07:48:55;;;;;;;63.35;38.95;;;9.60;1.00;;;;;;4966847;29;20070;-80
2023/12/15 07:51:23;;;;;;;50.63;32.50;;;9.70;1.00;;;;;;4952312;29;20047;-78
2023/12/15 07:53:50;;;;;;;50.65;31.77;;;9.70;99.90;;;;;;4950783;28;20496;-78
2023/12/15 07:56:22;;;;;;;46.40;31.90;;;9.60;1.00;;;;;;4951972;28;20043;-78
2023/12/15 07:58:50;;;;;;;45.95;30.00;;;9.60;99.90;;;;;;4952453;29;20036;-79
2023/12/15 08:01:18;;;;;;;40.95;29.92;;;9.70;99.90;;;;;;4952286;29;20054;-78
2023/12/15 08:03:45;;;;;;;44.53;28.77;;;9.80;1.00;;;;;;4951295;29;20102;-79
2023/12/15 08:06:15;;;;;;;47.17;31.70;;;9.80;1.00;;;;;;4951887;28;20039;-77
2023/12/15 08:08:43;;;;;;;60.13;39.67;;;9.90;1.00;;;;;;4951499;29;20115;-78
2023/12/15 08:11:11;;;;;;;49.50;33.28;;;10.00;1.00;;;;;;4952308;28;20039;-79
2023/12/15 08:13:39;;;;;;;60.13;36.83;;;10.00;1.00;;;;;;4951397;28;20061;-81
2023/12/15 08:16:07;;;;;;;55.20;37.35;;;10.00;1.00;;;;;;4951221;29;20052;-79
2023/12/15 08:18:35;;;;;;;58.85;34.83;;;10.00;1.00;;;;;;4950699;29;20047;-79
2023/12/15 08:21:05;;;;;;;47.65;31.33;;;9.90;1.00;;;;;;4952347;28;20078;-79
2023/12/15 08:23:34;;;;;;;41.53;29.13;;;9.90;1.00;;;;;;4951917;29;20090;-78
2023/12/15 08:26:02;;;;;;;45.17;29.02;;;9.80;1.00;;;;;;4953927;28;20039;-80
2023/12/15 08:28:29;;;;;;;44.17;28.70;;;9.80;99.90;;;;;;4954898;29;20067;-81
2023/12/15 08:30:57;;;;;;;47.15;30.15;;;9.80;99.90;;;;;;4952572;29;20049;-79
2023/12/15 08:33:24;;;;;;;47.90;29.73;;;9.70;99.90;;;;;;4954118;28;20048;-80
2023/12/15 08:35:52;;;;;;;43.67;28.20;;;9.70;1.00;;;;;;4955045;28;20049;-80
2023/12/15 08:38:20;;;;;;;37.47;24.48;;;9.80;99.90;;;;;;4959110;29;20047;-79
2023/12/15 08:40:49;;;;;;;31.55;20.83;;;9.60;99.90;;;;;;4957810;29;20518;-78
2023/12/15 08:43:16;;;;;;;32.75;22.17;;;9.60;30.70;;;;;;4957097;29;20058;-80
2023/12/15 08:45:43;;;;;;;24.38;16.52;;;9.50;99.90;;;;;;4951144;29;20043;-79
2023/12/15 08:48:11;;;;;;;25.23;18.25;;;9.40;1.00;;;;;;4952627;29;20040;-78
2023/12/15 08:50:38;;;;;;;24.80;17.70;;;9.30;99.90;;;;;;4951266;29;20509;-78
2023/12/15 08:53:06;;;;;;;25.75;18.05;;;9.30;1.00;;;;;;4951772;29;20511;-78
2023/12/15 08:55:33;;;;;;;29.08;18.70;;;9.10;1.00;;;;;;4964795;28;20074;-79
2023/12/15 08:58:02;;;;;;;26.70;19.27;;;9.20;1.00;;;;;;4971512;29;20039;-80
2023/12/15 09:00:30;;;;;;;26.42;18.33;;;9.10;1.00;;;;;;4957791;29;20051;-79
2023/12/15 09:02:57;;;;;;;27.60;20.83;;;9.20;99.90;;;;;;4950463;29;20143;-79
2023/12/15 09:05:25;;;;;;;25.73;19.73;;;9.10;1.00;;;;;;4952199;28;20040;-79
2023/12/15 09:07:55;;;;;;;24.58;18.77;;;9.30;99.90;;;;;;4955293;29;20043;-77
2023/12/15 09:10:24;;;;;;;26.65;18.63;;;9.20;99.90;;;;;;4955183;29;20558;-77
2023/12/15 09:12:51;;;;;;;24.08;18.75;;;9.20;1.00;;;;;;4954818;29;20047;-78
2023/12/15 09:15:20;;;;;;;22.58;17.15;;;9.20;1.00;;;;;;4953875;29;20047;-78
2023/12/15 09:17:50;;;;;;;19.55;15.02;;;9.30;1.00;;;;;;4954109;29;20047;-79
2023/12/15 09:20:17;;;;;;;26.52;17.30;;;9.40;1.00;;;;;;4959499;29;20071;-78
2023/12/15 09:22:45;;;;;;;19.23;14.80;;;9.40;1.00;;;;;;4956422;28;20070;-79
2023/12/15 09:25:12;;;;;;;19.75;15.18;;;9.40;1.00;;;;;;4957085;28;20129;-80
2023/12/15 09:27:40;;;;;;;20.05;13.93;;;9.10;99.90;;;;;;4953483;29;20035;-79
2023/12/15 09:30:08;;;;;;;23.02;15.18;;;9.00;1.00;;;;;;4954698;29;20046;-79
2023/12/15 09:32:37;;;;;;;23.27;15.63;;;9.10;99.90;;;;;;4954390;29;20396;-79
2023/12/15 09:35:05;;;;;;;20.30;15.35;;;9.20;99.90;;;;;;4954067;28;20035;-78
2023/12/15 09:37:33;;;;;;;17.58;13.52;;;9.30;1.00;;;;;;4954534;29;20047;-79
2023/12/15 09:40:00;;;;;;;23.08;15.20;;;9.40;93.00;;;;;;4955853;29;20050;-79
2023/12/15 09:42:29;;;;;;;21.40;14.82;;;9.40;1.00;;;;;;4956807;29;20053;-81
2023/12/15 09:44:56;;;;;;;20.45;15.00;;;9.40;1.00;;;;;;4961089;28;20102;-78
2023/12/15 09:47:24;;;;;;;23.60;15.13;;;9.40;1.00;;;;;;4959807;29;20055;-80
2023/12/15 09:49:54;;;;;;;24.95;16.52;;;9.30;1.00;;;;;;4959757;29;20054;-80
2023/12/15 09:52:25;;;;;;;24.30;17.98;;;9.20;99.90;;;;;;4954529;29;20035;-78
2023/12/15 09:54:52;;;;;;;26.88;18.77;;;9.00;1.00;;;;;;4953084;28;20407;-78
2023/12/15 09:57:21;;;;;;;31.50;20.00;;;8.90;1.00;;;;;;4953773;29;20047;-80
2023/12/15 09:59:49;;;;;;;27.70;19.42;;;8.80;1.00;;;;;;4954474;29;20069;-79
2023/12/15 10:02:16;;;;;;;24.27;17.38;;;8.70;1.00;;;;;;4954879;28;20047;-80
2023/12/15 10:04:43;;;;;;;28.38;19.98;;;8.70;1.00;;;;;;4952580;29;20051;-79
2023/12/15 10:07:12;;;;;;;28.52;19.83;;;8.70;99.90;;;;;;4954276;29;20039;-78
2023/12/15 10:09:40;;;;;;;30.27;20.80;;;8.80;1.00;;;;;;4952162;29;20627;-79
2023/12/15 10:12:09;;;;;;;30.77;19.70;;;8.90;1.00;;;;;;4953955;28;20043;-79
2023/12/15 10:14:38;;;;;;;24.92;18.90;;;9.00;99.90;;;;;;4952367;29;20051;-80
2023/12/15 10:17:10;;;;;;;23.40;16.00;;;9.10;1.00;;;;;;4952142;28;20416;-79
2023/12/15 10:19:38;;;;;;;23.60;15.75;;;9.10;99.90;;;;;;4951901;29;20048;-78
2023/12/15 10:22:07;;;;;;;22.27;16.45;;;9.20;94.00;;;;;;4952724;29;20636;-80
2023/12/15 10:24:36;;;;;;;27.65;19.02;;;9.10;19.50;;;;;;4952391;29;20384;-78
2023/12/15 10:27:04;;;;;;;22.63;18.20;;;9.10;99.90;;;;;;4952950;28;20047;-79
2023/12/15 10:29:31;;;;;;;24.58;19.17;;;9.00;99.90;;;;;;4953242;29;20098;-79
2023/12/15 10:32:01;;;;;;;24.48;19.00;;;8.90;1.00;;;;;;4952679;28;20035;-79
2023/12/15 10:34:29;;;;;;;23.80;19.02;;;8.60;99.90;;;;;;4951420;29;20043;-79
2023/12/15 10:36:57;;;;;;;26.90;20.33;;;8.60;1.00;;;;;;4952158;28;20043;-79
2023/12/15 10:39:25;;;;;;;25.90;19.70;;;8.70;71.60;;;;;;4952500;29;20044;-79
2023/12/15 10:41:56;;;;;;;29.65;21.42;;;8.70;1.00;;;;;;4953043;28;20211;-79
2023/12/15 10:44:26;;;;;;;25.25;18.48;;;8.70;99.90;;;;;;4952704;29;20048;-79
2023/12/15 10:46:53;;;;;;;25.80;18.98;;;8.50;1.00;;;;;;4952180;29;20058;-78
2023/12/15 10:49:22;;;;;;;24.02;18.73;;;8.30;99.90;;;;;;4952962;29;20127;-78
2023/12/15 10:51:51;;;;;;;24.90;19.02;;;8.20;99.90;;;;;;4951469;29;20607;-78
2023/12/15 10:54:19;;;;;;;25.38;19.52;;;7.90;1.00;;;;;;4951668;29;20054;-79
2023/12/15 10:56:51;;;;;;;26.33;19.42;;;8.00;1.00;;;;;;4952060;29;20054;-77
2023/12/15 10:59:20;;;;;;;26.15;21.35;;;8.10;99.90;;;;;;4952180;29;20487;-78
2023/12/15 11:01:48;;;;;;;28.70;22.00;;;8.10;1.00;;;;;;4951774;29;20058;-79
2023/12/15 11:04:22;;;;;;;32.47;21.27;;;8.00;1.00;;;;;;4952314;29;20051;-77
2023/12/15 11:06:51;;;;;;;27.02;21.00;;;8.10;1.00;;;;;;4951282;29;20054;-78
2023/12/15 11:09:32;;;;;;;28.20;19.50;;;8.20;1.00;;;;;;4951658;29;20035;-79
2023/12/15 11:12:28;;;;;;;29.45;20.00;;;8.30;1.00;;;;;;4966920;28;20051;-78
2023/12/15 11:15:02;;;;;;;24.90;18.95;;;8.10;1.00;;;;;;4950109;28;20495;-81
2023/12/15 11:17:33;;;;;;;23.45;17.40;;;7.90;1.00;;;;;;4951824;29;20047;-77
2023/12/15 11:20:06;;;;;;;30.08;20.27;;;8.00;99.90;;;;;;4952222;29;20043;-78
2023/12/15 11:22:52;;;;;;;37.03;24.65;;;8.10;99.90;;;;;;4951020;29;20979;-75
2023/12/15 11:25:20;;;;;;;31.83;21.70;;;8.20;1.00;;;;;;4951319;28;20514;-76
2023/12/15 11:28:01;;;;;;;26.27;19.15;;;8.30;1.00;;;;;;4950435;28;20090;-78
2023/12/15 11:30:31;;;;;;;23.20;17.85;;;8.50;1.00;;;;;;4950851;29;20047;-78
2023/12/15 11:32:59;;;;;;;30.30;19.50;;;8.60;1.00;;;;;;4951932;29;20070;-78
2023/12/15 11:35:32;;;;;;;25.08;18.40;;;8.60;1.00;;;;;;4952123;29;20484;-78
2023/12/15 11:38:00;;;;;;;22.52;17.92;;;8.50;99.90;;;;;;4952368;28;20059;-79
2023/12/15 11:40:29;;;;;;;27.02;19.13;;;8.60;99.90;;;;;;4952601;28;20035;-79
2023/12/15 11:42:58;;;;;;;24.08;17.95;;;8.40;1.00;;;;;;4950672;29;20078;-79
2023/12/15 11:45:26;;;;;;;23.88;17.60;;;8.50;99.90;;;;;;4952859;28;20055;-77
2023/12/15 11:47:55;;;;;;;23.45;17.67;;;8.70;99.90;;;;;;4953094;29;20051;-79
2023/12/15 11:50:23;;;;;;;22.58;17.58;;;8.70;1.00;;;;;;4952900;29;20047;-78
2023/12/15 11:52:51;;;;;;;19.50;14.35;;;8.70;99.90;;;;;;4951063;29;20046;-78
2023/12/15 11:55:19;;;;;;;22.73;16.23;;;8.20;99.90;;;;;;4951894;28;20483;-77
2023/12/15 11:57:47;;;;;;;22.02;16.05;;;8.20;99.90;;;;;;4954363;28;20229;-79
2023/12/15 12:00:17;;;;;;;21.13;15.60;;;8.40;1.00;;;;;;4952608;28;20665;-78
2023/12/15 12:02:46;;;;;;;23.77;16.33;;;8.50;99.90;;;;;;4949778;29;20059;-78
2023/12/15 12:05:15;;;;;;;19.08;14.70;;;8.40;1.00;;;;;;4952875;28;20102;-79
2023/12/15 12:07:43;;;;;;;21.65;16.60;;;8.30;99.90;;;;;;4951493;29;20044;-78
2023/12/15 12:10:11;;;;;;;22.55;17.20;;;8.20;1.00;;;;;;4951905;29;20492;-78
2023/12/15 12:12:38;;;;;;;20.52;17.25;;;8.10;99.90;;;;;;4951707;28;20114;-77
2023/12/15 12:15:08;;;;;;;20.38;17.40;;;8.20;99.90;;;;;;4951357;28;20049;-77
2023/12/15 12:17:36;;;;;;;24.27;17.67;;;8.30;1.00;;;;;;4951148;29;20558;-77
2023/12/15 12:20:06;;;;;;;21.75;16.35;;;8.40;1.00;;;;;;4952095;28;20050;-79
2023/12/15 12:22:36;;;;;;;23.88;16.65;;;8.50;1.00;;;;;;4950885;29;20419;-77
2023/12/15 12:25:06;;;;;;;20.90;17.17;;;8.60;1.00;;;;;;4951236;29;20042;-78
2023/12/15 12:27:33;;;;;;;17.70;14.30;;;8.60;1.00;;;;;;4952570;29;20055;-76
2023/12/15 12:30:01;;;;;;;20.85;14.23;;;8.60;1.00;;;;;;4951725;29;20039;-78
2023/12/15 12:32:28;;;;;;;21.23;14.68;;;8.60;1.00;;;;;;4950137;29;20407;-80
2023/12/15 12:34:57;;;;;;;17.95;13.13;;;8.70;1.00;;;;;;4951126;28;20078;-78
2023/12/15 12:37:24;;;;;;;20.15;14.48;;;8.80;1.00;;;;;;4952191;29;20050;-79
2023/12/15 12:39:53;;;;;;;20.65;14.82;;;8.90;99.90;;;;;;4953164;28;20039;-78
2023/12/15 12:42:21;;;;;;;20.33;14.32;;;8.90;99.90;;;;;;4955776;28;20043;-80
2023/12/15 12:44:50;;;;;;;23.58;15.25;;;8.90;99.90;;;;;;4955270;28;20051;-78
2023/12/15 12:47:17;;;;;;;17.67;11.68;;;9.00;99.90;;;;;;4991102;28;20141;-78
2023/12/15 12:49:46;;;;;;;18.52;12.20;;;8.90;1.00;;;;;;4965680;29;20385;-77